Terminal Aerodrome Forecast
Issued by NWS

Home | Current Version | Previous Version | Text Only | Print | Product List | Glossary Off
Versions: 1 2 3 4 5 6 7 8 9 10 11 12 13 14 15 16 17 18 19 20 21 22 23 24 25

000
FTUS43 KTOP 171400 AAA
TAFFOE
TAF AMD
KFOE 171417Z 1714/1812 14006KT 3SM BR OVC003
     FM171600 06005KT 6SM BR OVC011
     FM171900 08006KT P6SM SCT020
     FM180800 09006KT 4SM BR SCT015 SCT150=

USA.gov is the U.S. government's official web portal to all federal, state and local government web resources and services.